Time;durP1;ratioP1;P1;durP2;ratioP2;P2;SDS_P1;SDS_P2;PMS_P1;PMS_P2;Temp;Humidity;BMP_temperature;BMP_pressure;BME280_temperature;BME280_humidity;BME280_pressure;Samples;Min_cycle;Max_cycle;Signal;HPM_P1;HPM_P2
2022/02/27 00:00:03;;;;;;;8.45;3.80;;;5.10;99.90;;;;;;5042022;28;20192;-77
2022/02/27 00:02:38;;;;;;;9.93;4.05;;;5.10;99.90;;;;;;5040985;28;20172;-77
2022/02/27 00:05:04;;;;;;;7.97;3.43;;;5.10;99.90;;;;;;5040987;28;20183;-77
2022/02/27 00:07:30;;;;;;;6.43;3.67;;;5.10;99.90;;;;;;5042601;28;20709;-77
2022/02/27 00:09:56;;;;;;;12.90;3.90;;;5.10;99.90;;;;;;5040638;28;20666;-77
2022/02/27 00:12:21;;;;;;;7.30;3.50;;;5.00;99.90;;;;;;5045720;28;20173;-77
2022/02/27 00:14:47;;;;;;;8.30;3.93;;;5.00;99.90;;;;;;5039932;28;20655;-77
2022/02/27 00:17:13;;;;;;;7.43;3.33;;;5.00;99.90;;;;;;5043183;28;20181;-77
2022/02/27 00:19:39;;;;;;;6.70;2.90;;;5.00;99.90;;;;;;5040546;28;20258;-77
2022/02/27 00:22:04;;;;;;;8.17;3.47;;;5.00;99.90;;;;;;5041891;28;20679;-77
2022/02/27 00:24:30;;;;;;;6.70;3.40;;;5.00;99.90;;;;;;5040583;28;20677;-77
2022/02/27 00:26:56;;;;;;;7.73;3.13;;;5.00;99.90;;;;;;5041055;28;20213;-77
2022/02/27 00:29:22;;;;;;;7.38;3.78;;;5.00;99.90;;;;;;5041484;28;20213;-77
2022/02/27 00:31:48;;;;;;;8.20;2.80;;;5.00;99.90;;;;;;5042905;28;20204;-78
2022/02/27 00:34:14;;;;;;;6.20;3.03;;;5.00;99.90;;;;;;5038493;28;20201;-77
2022/02/27 00:36:40;;;;;;;7.20;2.70;;;5.00;99.90;;;;;;5042018;28;20615;-78
2022/02/27 00:39:05;;;;;;;7.83;3.10;;;5.00;99.90;;;;;;5039914;28;20181;-77
2022/02/27 00:41:31;;;;;;;5.50;2.67;;;4.90;99.90;;;;;;5042002;28;20231;-77
2022/02/27 00:43:57;;;;;;;7.27;3.40;;;4.90;99.90;;;;;;5039310;28;20584;-77
2022/02/27 00:46:23;;;;;;;5.23;3.20;;;4.90;99.90;;;;;;5041234;28;20595;-78
2022/02/27 00:48:49;;;;;;;9.00;2.77;;;4.90;99.90;;;;;;5030470;28;20586;-78
2022/02/27 00:51:14;;;;;;;6.93;3.33;;;4.90;99.90;;;;;;5043379;28;20192;-77
2022/02/27 00:53:40;;;;;;;7.47;3.37;;;4.90;99.90;;;;;;5045302;28;20161;-77
2022/02/27 00:56:06;;;;;;;7.27;3.40;;;4.90;99.90;;;;;;5036880;28;20602;-77
2022/02/27 00:58:31;;;;;;;6.33;3.00;;;4.80;99.90;;;;;;5023037;28;20259;-77
2022/02/27 01:00:57;;;;;;;10.77;3.20;;;4.80;99.90;;;;;;5040353;28;20227;-77
2022/02/27 01:03:23;;;;;;;4.83;3.40;;;4.80;99.90;;;;;;5038180;28;20987;-77
2022/02/27 01:05:48;;;;;;;6.93;3.00;;;4.80;99.90;;;;;;5037912;28;20169;-77
2022/02/27 01:08:14;;;;;;;6.73;2.90;;;4.80;99.90;;;;;;5041026;28;20202;-77
2022/02/27 01:10:40;;;;;;;6.57;3.03;;;4.80;99.90;;;;;;5038533;28;20197;-77
2022/02/27 01:13:07;;;;;;;5.28;3.25;;;4.70;99.90;;;;;;5039864;28;20562;-77
2022/02/27 01:15:33;;;;;;;7.40;3.60;;;4.70;99.90;;;;;;5040444;28;20174;-77
2022/02/27 01:17:59;;;;;;;12.23;3.63;;;4.70;99.90;;;;;;5038469;28;20642;-77
2022/02/27 01:20:24;;;;;;;10.57;2.70;;;4.60;99.90;;;;;;5024655;28;20628;-77
2022/02/27 01:22:51;;;;;;;6.07;3.50;;;4.60;99.90;;;;;;5005978;28;20190;-77
2022/02/27 01:25:17;;;;;;;4.88;2.70;;;4.70;99.90;;;;;;5028484;28;20578;-78
2022/02/27 01:27:43;;;;;;;7.90;2.97;;;4.60;99.90;;;;;;5040191;28;20213;-77
2022/02/27 01:30:09;;;;;;;5.47;2.97;;;4.60;99.90;;;;;;5038952;28;20193;-76
2022/02/27 01:32:37;;;;;;;6.43;3.60;;;4.60;99.90;;;;;;5040248;28;20674;-77
2022/02/27 01:35:06;;;;;;;5.82;3.33;;;4.60;99.90;;;;;;5021349;28;20231;-77
2022/02/27 01:37:33;;;;;;;5.38;2.95;;;4.60;99.90;;;;;;5036152;28;20228;-77
2022/02/27 01:40:00;;;;;;;8.32;3.50;;;4.60;99.90;;;;;;5039593;28;20302;-77
2022/02/27 01:42:26;;;;;;;3.75;2.00;;;4.60;99.90;;;;;;5004850;28;20193;-77
2022/02/27 01:44:53;;;;;;;11.25;3.25;;;4.60;99.90;;;;;;5040722;28;20177;-77
2022/02/27 01:47:19;;;;;;;4.80;2.10;;;4.60;99.90;;;;;;5041627;28;20296;-77
2022/02/27 01:49:47;;;;;;;5.00;2.20;;;4.60;99.90;;;;;;5044376;28;20228;-77
2022/02/27 01:52:14;;;;;;;2.90;2.10;;;4.50;99.90;;;;;;5043337;28;20228;-77
2022/02/27 01:54:40;;;;;;;6.28;2.47;;;4.60;99.90;;;;;;5026652;28;20705;-77
2022/02/27 01:57:10;;;;;;;5.72;2.75;;;4.60;99.90;;;;;;5043558;28;20187;-77
2022/02/27 01:59:40;;;;;;;9.88;2.75;;;4.50;99.90;;;;;;5024479;28;20223;-77
2022/02/27 02:02:07;;;;;;;6.55;2.70;;;4.60;99.90;;;;;;5019863;28;20606;-78
2022/02/27 02:04:34;;;;;;;3.17;2.42;;;4.60;99.90;;;;;;5047512;28;20165;-77
2022/02/27 02:07:00;;;;;;;4.50;2.13;;;4.50;99.90;;;;;;5043233;28;20316;-77
2022/02/27 02:09:29;;;;;;;8.02;2.53;;;4.50;99.90;;;;;;5042711;28;20264;-77
2022/02/27 02:11:56;;;;;;;8.57;3.03;;;4.50;99.90;;;;;;5043919;28;20184;-77
2022/02/27 02:14:22;;;;;;;5.28;2.85;;;4.50;99.90;;;;;;5041599;28;20207;-77
2022/02/27 02:16:53;;;;;;;6.43;2.47;;;4.50;99.90;;;;;;5042922;28;20177;-77
2022/02/27 02:19:24;;;;;;;5.80;2.40;;;4.50;99.90;;;;;;5043308;28;20177;-77
2022/02/27 02:21:57;;;;;;;5.45;2.30;;;4.50;99.90;;;;;;5036769;28;20531;-77
2022/02/27 02:24:24;;;;;;;6.20;2.28;;;4.50;99.90;;;;;;5026267;28;20616;-78
2022/02/27 02:26:50;;;;;;;6.00;1.85;;;4.40;99.90;;;;;;5025030;28;20267;-77
2022/02/27 02:29:19;;;;;;;4.20;1.73;;;4.50;99.90;;;;;;5024808;28;20197;-77
2022/02/27 02:31:47;;;;;;;5.60;2.50;;;4.40;99.90;;;;;;5010684;28;20326;-77
2022/02/27 02:34:17;;;;;;;10.52;2.80;;;4.40;99.90;;;;;;5041003;28;20268;-77
2022/02/27 02:36:45;;;;;;;5.18;2.60;;;4.40;99.90;;;;;;5025525;28;20177;-77
2022/02/27 02:39:13;;;;;;;7.45;2.65;;;4.40;99.90;;;;;;5043257;28;20204;-78
2022/02/27 02:41:39;;;;;;;4.57;2.47;;;4.30;99.90;;;;;;5046576;28;20620;-77
2022/02/27 02:44:10;;;;;;;5.35;2.20;;;4.30;99.90;;;;;;5035811;28;20190;-77
2022/02/27 02:46:36;;;;;;;4.82;2.05;;;4.30;99.90;;;;;;5043679;28;20201;-77
2022/02/27 02:49:03;;;;;;;5.47;2.13;;;4.30;99.90;;;;;;5042068;28;20173;-77
2022/02/27 02:51:41;;;;;;;4.20;1.98;;;4.20;99.90;;;;;;5029118;28;20622;-77
2022/02/27 02:54:07;;;;;;;4.32;2.17;;;4.20;99.90;;;;;;5041562;28;20190;-77
2022/02/27 02:56:33;;;;;;;7.10;2.45;;;4.20;99.90;;;;;;5043277;28;20264;-77
2022/02/27 02:58:59;;;;;;;6.90;1.90;;;4.20;99.90;;;;;;5044367;28;20177;-77
2022/02/27 03:01:26;;;;;;;5.80;2.20;;;4.10;99.90;;;;;;5049274;28;20216;-78
2022/02/27 03:03:53;;;;;;;4.60;2.38;;;4.10;99.90;;;;;;5061596;28;20241;-77
2022/02/27 03:06:19;;;;;;;8.25;2.40;;;4.10;99.90;;;;;;5051167;28;20541;-77
2022/02/27 03:08:47;;;;;;;6.38;2.38;;;4.10;99.90;;;;;;5046629;28;20200;-77
2022/02/27 03:11:15;;;;;;;7.05;2.35;;;4.10;99.90;;;;;;5043576;28;20538;-77
2022/02/27 03:13:40;;;;;;;6.15;2.22;;;4.10;99.90;;;;;;5035624;28;20165;-77
2022/02/27 03:16:06;;;;;;;9.43;2.90;;;4.00;99.90;;;;;;5036902;28;20251;-78
2022/02/27 03:18:32;;;;;;;7.80;3.25;;;4.00;99.90;;;;;;5049519;28;20592;-77
2022/02/27 03:20:59;;;;;;;5.80;2.85;;;3.90;99.90;;;;;;5042802;28;20201;-77
2022/02/27 03:23:28;;;;;;;5.55;2.75;;;3.90;99.90;;;;;;5042404;28;20272;-77
2022/02/27 03:25:53;;;;;;;6.10;3.22;;;3.90;99.90;;;;;;5039784;28;20527;-77
2022/02/27 03:28:19;;;;;;;4.43;2.63;;;3.80;99.90;;;;;;5023936;28;20216;-77
2022/02/27 03:30:46;;;;;;;5.03;3.10;;;3.70;99.90;;;;;;5044108;28;20201;-78
2022/02/27 03:33:12;;;;;;;5.03;3.87;;;3.70;99.90;;;;;;5037024;28;20240;-77
2022/02/27 03:35:38;;;;;;;9.47;3.30;;;3.70;99.90;;;;;;5043727;28;20176;-77
2022/02/27 03:38:04;;;;;;;5.15;2.28;;;3.70;99.90;;;;;;5007765;28;20207;-77
2022/02/27 03:40:30;;;;;;;7.32;2.50;;;3.60;99.90;;;;;;5041877;28;20249;-77
2022/02/27 03:42:56;;;;;;;5.50;2.33;;;3.60;99.90;;;;;;5041776;28;20811;-77
2022/02/27 03:45:22;;;;;;;7.53;3.17;;;3.50;99.90;;;;;;5039903;28;20286;-76
2022/02/27 03:47:48;;;;;;;6.23;3.10;;;3.50;99.90;;;;;;5042804;28;20200;-76
2022/02/27 03:50:15;;;;;;;6.37;3.70;;;3.50;99.90;;;;;;5040658;28;20726;-77
2022/02/27 03:52:42;;;;;;;3.67;2.70;;;3.50;99.90;;;;;;5021005;28;20599;-77
2022/02/27 03:55:10;;;;;;;4.10;2.10;;;3.40;99.90;;;;;;5045563;28;20181;-77
2022/02/27 03:57:36;;;;;;;7.43;3.72;;;3.40;99.90;;;;;;5041794;28;20648;-76
2022/02/27 04:00:08;;;;;;;3.50;2.30;;;3.40;99.90;;;;;;5040148;28;20233;-77
2022/02/27 04:02:38;;;;;;;6.90;3.08;;;3.40;99.90;;;;;;5038994;28;20188;-77
2022/02/27 04:05:04;;;;;;;4.43;2.22;;;3.40;99.90;;;;;;5041602;28;20592;-77
2022/02/27 04:07:30;;;;;;;4.15;2.25;;;3.40;99.90;;;;;;5040625;28;20576;-77
2022/02/27 04:09:56;;;;;;;5.20;2.00;;;3.40;99.90;;;;;;5038324;28;20207;-77
2022/02/27 04:12:22;;;;;;;5.20;2.30;;;3.40;99.90;;;;;;5038863;28;20178;-76
2022/02/27 04:14:47;;;;;;;5.20;2.97;;;3.40;99.90;;;;;;5043284;28;20169;-77
2022/02/27 04:17:13;;;;;;;8.03;3.30;;;3.40;99.90;;;;;;5039824;28;20580;-77
2022/02/27 04:19:39;;;;;;;5.97;2.03;;;3.40;99.90;;;;;;5041840;28;20296;-77
2022/02/27 04:22:05;;;;;;;6.70;2.20;;;3.40;99.90;;;;;;5040654;28;20592;-77
2022/02/27 04:24:30;;;;;;;6.30;2.10;;;3.40;99.90;;;;;;5023083;28;20181;-77
2022/02/27 04:26:58;;;;;;;5.47;2.00;;;3.40;99.90;;;;;;5043360;28;20747;-77
2022/02/27 04:29:24;;;;;;;4.25;1.95;;;3.40;99.90;;;;;;5034287;28;20572;-77
2022/02/27 04:31:50;;;;;;;8.15;3.30;;;3.50;99.90;;;;;;5022234;28;20706;-77
2022/02/27 04:34:15;;;;;;;7.73;2.13;;;3.50;99.90;;;;;;5042323;28;20273;-77
2022/02/27 04:36:41;;;;;;;7.07;2.30;;;3.50;99.90;;;;;;5042251;28;20238;-77
2022/02/27 04:39:07;;;;;;;3.67;1.50;;;3.50;99.90;;;;;;5025531;28;20682;-77
2022/02/27 04:41:33;;;;;;;3.50;2.00;;;3.60;99.90;;;;;;5039550;28;20197;-77
2022/02/27 04:43:58;;;;;;;5.10;1.87;;;3.60;99.90;;;;;;5046453;28;20185;-77
2022/02/27 04:46:24;;;;;;;4.50;1.60;;;3.60;99.90;;;;;;5034641;28;20201;-77
2022/02/27 04:48:50;;;;;;;5.60;2.60;;;3.70;99.90;;;;;;5042159;28;20177;-76
2022/02/27 04:51:15;;;;;;;4.67;2.33;;;3.70;99.90;;;;;;5041412;28;20193;-77
2022/02/27 04:53:41;;;;;;;4.90;2.10;;;3.70;99.90;;;;;;5041492;28;20177;-76
2022/02/27 04:56:08;;;;;;;5.95;2.40;;;3.70;99.90;;;;;;5039472;28;20182;-77
2022/02/27 04:58:34;;;;;;;5.07;1.83;;;3.70;99.90;;;;;;5041270;28;20180;-77
2022/02/27 05:01:00;;;;;;;5.40;1.70;;;3.70;99.90;;;;;;5039087;28;20200;-77
2022/02/27 05:03:26;;;;;;;6.32;1.83;;;3.80;99.90;;;;;;5043444;28;20189;-77
2022/02/27 05:05:52;;;;;;;4.07;1.30;;;3.80;99.90;;;;;;5040645;28;20183;-77
2022/02/27 05:08:18;;;;;;;6.13;1.80;;;3.80;99.90;;;;;;5040876;28;20292;-78
2022/02/27 05:10:43;;;;;;;8.33;1.53;;;3.80;99.90;;;;;;5045315;28;20649;-77
2022/02/27 05:13:09;;;;;;;8.83;2.00;;;3.80;99.90;;;;;;5041717;28;20181;-77
2022/02/27 05:15:35;;;;;;;6.17;2.43;;;3.80;99.90;;;;;;5021860;28;20184;-77
2022/02/27 05:18:01;;;;;;;4.47;1.90;;;3.80;99.90;;;;;;5041666;28;20177;-77
2022/02/27 05:20:27;;;;;;;7.50;1.63;;;3.80;99.90;;;;;;5024553;28;20268;-77
2022/02/27 05:22:53;;;;;;;3.47;1.57;;;3.90;99.90;;;;;;5044691;28;20180;-77
2022/02/27 05:25:21;;;;;;;3.95;1.92;;;3.90;99.90;;;;;;5044857;28;20264;-77
2022/02/27 05:27:49;;;;;;;5.20;1.67;;;3.90;99.90;;;;;;5026215;28;20220;-77
2022/02/27 05:30:14;;;;;;;3.72;1.77;;;3.90;99.90;;;;;;5045844;28;20189;-77
2022/02/27 05:32:40;;;;;;;2.80;1.50;;;3.90;99.90;;;;;;5041873;28;20197;-77
2022/02/27 05:35:07;;;;;;;3.63;1.83;;;3.90;99.90;;;;;;5028296;28;21054;-77
2022/02/27 05:37:33;;;;;;;3.05;1.48;;;3.90;99.90;;;;;;5044253;28;20272;-77
2022/02/27 05:39:58;;;;;;;4.70;2.03;;;3.90;99.90;;;;;;5026272;28;20287;-77
2022/02/27 05:42:24;;;;;;;4.27;1.40;;;3.90;99.90;;;;;;5045225;28;20575;-77
2022/02/27 05:44:50;;;;;;;4.90;1.60;;;3.90;99.90;;;;;;5043393;28;20182;-77
2022/02/27 05:47:16;;;;;;;3.80;1.67;;;3.90;99.90;;;;;;5050878;28;20673;-77
2022/02/27 05:49:43;;;;;;;5.93;1.65;;;3.90;99.90;;;;;;5038930;28;20596;-77
2022/02/27 05:52:08;;;;;;;6.35;1.77;;;3.90;99.90;;;;;;5027403;28;20173;-77
2022/02/27 05:54:34;;;;;;;4.13;1.83;;;3.90;99.90;;;;;;5044160;28;20178;-77
2022/02/27 05:57:00;;;;;;;5.03;2.47;;;3.90;99.90;;;;;;5042972;28;20177;-77
2022/02/27 05:59:26;;;;;;;6.20;1.75;;;3.80;99.90;;;;;;5043823;28;20277;-78
2022/02/27 06:01:52;;;;;;;3.87;1.33;;;3.80;99.90;;;;;;5040460;28;20316;-77
2022/02/27 06:04:18;;;;;;;5.67;1.77;;;3.90;99.90;;;;;;5045982;28;20185;-77
2022/02/27 06:06:44;;;;;;;5.68;2.08;;;3.90;99.90;;;;;;5041486;28;20900;-77
2022/02/27 06:09:10;;;;;;;6.32;2.20;;;3.90;99.90;;;;;;5044964;28;20175;-77
2022/02/27 06:11:36;;;;;;;4.10;1.60;;;3.90;99.90;;;;;;5042270;28;20678;-77
2022/02/27 06:14:03;;;;;;;4.03;1.37;;;3.90;99.90;;;;;;5042378;28;20575;-77
2022/02/27 06:16:29;;;;;;;2.40;1.40;;;3.90;99.90;;;;;;5027333;28;20583;-77
2022/02/27 06:18:55;;;;;;;5.25;1.85;;;4.00;99.90;;;;;;5041204;28;20177;-78
2022/02/27 06:21:21;;;;;;;9.13;1.70;;;3.90;99.90;;;;;;5043753;28;20207;-77
2022/02/27 06:23:46;;;;;;;7.67;1.90;;;4.00;99.90;;;;;;5050846;28;20165;-77
2022/02/27 06:26:12;;;;;;;5.73;1.50;;;4.00;99.90;;;;;;5043544;28;20529;-77
2022/02/27 06:28:38;;;;;;;2.80;1.70;;;4.00;99.90;;;;;;5042567;28;20217;-77
2022/02/27 06:31:03;;;;;;;3.03;1.80;;;4.00;99.90;;;;;;5043265;28;20193;-77
2022/02/27 06:33:29;;;;;;;4.23;2.43;;;4.10;99.90;;;;;;5042612;28;20645;-77
2022/02/27 06:35:55;;;;;;;4.73;2.20;;;4.10;99.90;;;;;;5044257;28;20264;-77
2022/02/27 06:38:21;;;;;;;7.40;2.10;;;4.10;99.90;;;;;;5042095;28;21144;-77
2022/02/27 06:40:47;;;;;;;6.72;2.72;;;4.20;99.90;;;;;;5042867;28;20229;-77
2022/02/27 06:43:13;;;;;;;5.30;2.57;;;4.20;99.90;;;;;;5043205;28;20611;-77
2022/02/27 06:45:39;;;;;;;6.73;1.97;;;4.20;99.90;;;;;;5041942;28;20615;-77
2022/02/27 06:48:05;;;;;;;3.27;1.40;;;4.20;99.90;;;;;;5044116;28;20691;-77
2022/02/27 06:50:31;;;;;;;4.17;1.57;;;4.20;99.90;;;;;;5044158;28;20193;-77
2022/02/27 06:52:56;;;;;;;5.77;1.90;;;4.30;99.90;;;;;;5040413;28;20177;-77
2022/02/27 06:55:22;;;;;;;4.20;1.63;;;4.30;99.90;;;;;;5044604;28;20583;-78
2022/02/27 06:57:48;;;;;;;3.83;2.30;;;4.30;99.90;;;;;;5041295;28;20188;-77
2022/02/27 07:00:16;;;;;;;5.65;2.42;;;4.30;99.90;;;;;;5043699;28;21063;-78
2022/02/27 07:02:41;;;;;;;7.50;2.53;;;4.30;99.90;;;;;;5048505;28;20193;-78
2022/02/27 07:05:08;;;;;;;6.13;2.45;;;4.30;99.90;;;;;;5045467;28;20173;-78
2022/02/27 07:07:34;;;;;;;3.40;1.85;;;4.40;99.90;;;;;;5044055;28;20212;-77
2022/02/27 07:10:01;;;;;;;13.93;2.90;;;4.40;99.90;;;;;;5039934;28;20198;-77
2022/02/27 07:12:28;;;;;;;6.20;1.88;;;4.40;99.90;;;;;;5043815;28;20169;-78
2022/02/27 07:14:54;;;;;;;6.95;2.30;;;4.40;99.90;;;;;;5042975;28;20803;-77
2022/02/27 07:17:20;;;;;;;8.63;2.60;;;4.40;99.90;;;;;;5041275;28;20178;-78
2022/02/27 07:19:45;;;;;;;8.70;3.00;;;4.50;99.90;;;;;;5043669;28;20224;-77
2022/02/27 07:22:13;;;;;;;4.90;1.43;;;4.50;99.90;;;;;;5046255;28;20181;-78
2022/02/27 07:24:39;;;;;;;9.25;2.70;;;4.50;99.90;;;;;;5038853;28;20181;-77
2022/02/27 07:27:05;;;;;;;6.80;2.35;;;4.50;99.90;;;;;;5045370;28;20201;-77
2022/02/27 07:29:32;;;;;;;5.45;2.25;;;4.60;99.90;;;;;;5042001;28;20259;-77
2022/02/27 07:31:58;;;;;;;4.00;2.10;;;4.50;99.90;;;;;;5041957;28;20174;-77
2022/02/27 07:34:24;;;;;;;5.10;2.00;;;4.60;99.90;;;;;;5041881;28;20201;-77
2022/02/27 07:36:51;;;;;;;5.13;2.80;;;4.70;99.90;;;;;;5040765;28;20209;-77
2022/02/27 07:39:24;;;;;;;8.98;2.53;;;4.70;99.90;;;;;;5042141;28;20569;-77
2022/02/27 07:41:50;;;;;;;5.57;2.22;;;4.80;99.90;;;;;;5041168;28;20549;-77
2022/02/27 07:44:16;;;;;;;2.53;1.60;;;4.80;99.90;;;;;;5043172;28;20672;-77
2022/02/27 07:46:43;;;;;;;5.28;2.42;;;4.90;99.90;;;;;;5039714;28;20201;-77
2022/02/27 07:49:09;;;;;;;6.85;1.80;;;4.90;99.90;;;;;;5042970;28;20169;-77
2022/02/27 07:51:35;;;;;;;3.17;1.70;;;5.00;99.90;;;;;;5040624;28;20197;-77
2022/02/27 07:54:02;;;;;;;5.30;2.77;;;5.10;99.90;;;;;;5041696;28;20173;-77
2022/02/27 07:56:28;;;;;;;3.47;2.35;;;5.10;99.90;;;;;;5042149;28;20576;-76
2022/02/27 07:58:54;;;;;;;7.50;2.37;;;5.20;99.90;;;;;;5023992;28;20169;-76
2022/02/27 08:01:20;;;;;;;5.30;2.13;;;5.30;99.90;;;;;;5041558;28;20677;-76
2022/02/27 08:03:47;;;;;;;7.35;2.47;;;5.30;99.90;;;;;;5039123;28;20324;-77
2022/02/27 08:06:13;;;;;;;5.40;2.75;;;5.40;99.90;;;;;;5043279;28;20165;-76
2022/02/27 08:08:39;;;;;;;3.40;2.13;;;5.40;99.90;;;;;;5023388;28;20222;-77
2022/02/27 08:11:08;;;;;;;7.70;3.28;;;5.50;99.90;;;;;;5040630;28;21078;-77
2022/02/27 08:13:37;;;;;;;4.75;2.20;;;5.60;99.90;;;;;;5042842;28;20173;-77
2022/02/27 08:16:03;;;;;;;5.85;2.45;;;5.70;99.90;;;;;;5043899;28;20173;-77
2022/02/27 08:18:30;;;;;;;6.13;2.23;;;5.80;99.90;;;;;;5042190;28;20710;-76
2022/02/27 08:20:56;;;;;;;5.13;2.25;;;5.90;99.90;;;;;;5040147;28;21206;-76
2022/02/27 08:23:22;;;;;;;5.35;2.53;;;6.00;99.90;;;;;;5042459;28;20538;-76
2022/02/27 08:25:49;;;;;;;5.72;2.38;;;6.10;99.90;;;;;;5046430;28;20177;-76
2022/02/27 08:28:16;;;;;;;5.95;2.80;;;6.20;99.90;;;;;;5041719;28;20216;-76
2022/02/27 08:30:42;;;;;;;4.32;2.17;;;6.40;99.90;;;;;;5037861;28;20404;-76
2022/02/27 08:33:08;;;;;;;4.28;3.15;;;7.00;99.90;;;;;;5041826;28;20554;-78
2022/02/27 08:35:34;;;;;;;5.27;3.00;;;7.70;99.90;;;;;;5040804;28;20192;-77
2022/02/27 08:38:01;;;;;;;6.30;2.45;;;8.60;99.90;;;;;;5040570;28;20575;-77
2022/02/27 08:40:27;;;;;;;5.97;2.15;;;9.30;99.90;;;;;;5040183;28;20209;-76
2022/02/27 08:42:58;;;;;;;7.53;2.57;;;10.20;99.90;;;;;;5043926;28;20264;-77
2022/02/27 08:45:24;;;;;;;6.60;3.00;;;11.00;99.90;;;;;;5018958;28;20636;-77
2022/02/27 08:47:51;;;;;;;3.80;2.63;;;11.70;99.90;;;;;;5039486;28;20627;-77
2022/02/27 08:50:17;;;;;;;3.10;1.90;;;12.50;99.90;;;;;;5042378;28;20611;-79
2022/02/27 08:52:43;;;;;;;4.83;2.20;;;13.30;99.90;;;;;;5047410;28;20591;-76
2022/02/27 08:55:10;;;;;;;3.30;1.80;;;13.90;99.90;;;;;;5046264;28;20189;-79
2022/02/27 08:57:36;;;;;;;3.40;1.83;;;14.50;99.90;;;;;;5043286;28;20579;-79
2022/02/27 09:00:05;;;;;;;4.30;2.17;;;15.10;99.90;;;;;;5041282;28;20591;-77
2022/02/27 09:02:31;;;;;;;4.37;2.20;;;15.60;99.90;;;;;;5040431;28;21122;-77
2022/02/27 09:04:57;;;;;;;4.80;1.70;;;16.00;99.60;;;;;;5041236;28;20654;-78
2022/02/27 09:07:23;;;;;;;4.53;2.30;;;16.30;97.20;;;;;;5040761;28;20202;-77
2022/02/27 09:09:48;;;;;;;3.27;1.80;;;16.60;95.10;;;;;;5038864;28;20682;-77
2022/02/27 09:12:14;;;;;;;5.13;2.33;;;17.00;96.40;;;;;;5041971;28;21318;-77
2022/02/27 09:14:42;;;;;;;5.90;2.03;;;17.30;96.20;;;;;;5040158;28;20267;-78
2022/02/27 09:17:09;;;;;;;3.70;1.90;;;17.60;96.00;;;;;;5040804;28;20268;-78
2022/02/27 09:19:34;;;;;;;4.50;1.90;;;18.10;95.50;;;;;;5039822;28;20676;-76
2022/02/27 09:22:00;;;;;;;3.93;2.40;;;17.70;80.40;;;;;;5040728;28;20703;-76
2022/02/27 09:24:26;;;;;;;4.50;2.83;;;17.30;71.00;;;;;;5042583;28;20185;-78
2022/02/27 09:26:53;;;;;;;4.87;2.67;;;17.10;74.80;;;;;;5040112;28;20622;-78
2022/02/27 09:29:20;;;;;;;3.90;2.30;;;16.90;75.70;;;;;;5037232;28;20590;-78
2022/02/27 09:31:46;;;;;;;5.17;2.10;;;16.60;70.40;;;;;;5026827;28;20569;-77
2022/02/27 09:34:11;;;;;;;4.50;2.00;;;16.90;81.10;;;;;;5041326;28;20586;-77
2022/02/27 09:36:38;;;;;;;5.30;2.30;;;16.80;73.90;;;;;;5042044;28;20181;-77
2022/02/27 09:39:05;;;;;;;4.83;2.60;;;16.60;70.70;;;;;;5040899;28;20170;-77
2022/02/27 09:41:31;;;;;;;7.27;2.63;;;16.20;67.90;;;;;;5042704;28;20657;-77
2022/02/27 09:43:59;;;;;;;5.67;2.80;;;16.20;66.40;;;;;;5034484;28;20615;-77
2022/02/27 09:46:26;;;;;;;5.63;1.60;;;16.20;68.30;;;;;;5040665;28;20602;-78
2022/02/27 09:48:53;;;;;;;7.90;2.10;;;16.20;69.90;;;;;;5043077;28;20587;-78
2022/02/27 09:51:19;;;;;;;5.50;1.40;;;16.40;74.80;;;;;;5041564;28;20618;-78
2022/02/27 09:53:46;;;;;;;5.33;2.37;;;16.70;74.50;;;;;;5039391;28;21163;-78
2022/02/27 09:56:12;;;;;;;2.80;1.77;;;17.00;73.00;;;;;;5043206;28;20630;-77
2022/02/27 09:58:38;;;;;;;3.83;1.80;;;17.00;67.50;;;;;;5039742;28;20583;-77
2022/02/27 10:01:14;;;;;;;5.10;2.37;;;17.40;71.70;;;;;;5040343;28;20615;-77
2022/02/27 10:03:41;;;;;;;4.27;2.37;;;17.30;62.10;;;;;;5045280;28;21001;-77
2022/02/27 10:06:11;;;;;;;4.40;1.90;;;17.10;60.90;;;;;;5046787;28;20590;-77
2022/02/27 10:08:48;;;;;;;3.10;1.60;;;17.00;62.40;;;;;;5054634;28;20654;-77
2022/02/27 10:11:18;;;;;;;3.63;1.70;;;16.90;58.60;;;;;;5055094;28;20711;-77
2022/02/27 10:13:48;;;;;;;4.73;1.93;;;16.60;59.20;;;;;;5050284;28;20576;-77
2022/02/27 10:16:15;;;;;;;4.00;1.60;;;16.50;60.30;;;;;;5051416;28;20590;-78
2022/02/27 10:19:00;;;;;;;2.40;1.77;;;16.30;63.00;;;;;;5048578;28;20580;-77
2022/02/27 10:21:41;;;;;;;4.80;3.33;;;16.50;60.30;;;;;;5048019;28;20616;-77
2022/02/27 10:24:12;;;;;;;4.43;1.60;;;16.60;59.20;;;;;;5041942;28;21053;-77
2022/02/27 10:26:40;;;;;;;4.43;1.90;;;16.80;63.40;;;;;;5048714;28;20590;-78
2022/02/27 10:29:11;;;;;;;2.63;1.30;;;17.10;67.50;;;;;;5031545;28;20572;-77
2022/02/27 10:31:39;;;;;;;2.83;1.60;;;17.60;69.30;;;;;;5049479;28;20612;-77
2022/02/27 10:34:22;;;;;;;3.70;1.50;;;18.00;65.80;;;;;;5051051;28;20575;-78
2022/02/27 10:36:54;;;;;;;3.77;1.90;;;18.00;58.90;;;;;;5050921;28;20618;-78
2022/02/27 10:39:42;;;;;;;4.13;1.90;;;18.00;57.80;;;;;;5044501;28;21175;-78
2022/02/27 10:42:09;;;;;;;4.00;1.80;;;17.50;57.60;;;;;;5042548;28;20580;-78
2022/02/27 10:44:36;;;;;;;3.80;1.53;;;17.20;56.70;;;;;;5028574;28;20594;-78
2022/02/27 10:47:08;;;;;;;5.40;2.10;;;16.90;55.50;;;;;;5044062;28;20623;-78
2022/02/27 10:49:35;;;;;;;4.53;2.37;;;16.10;53.20;;;;;;5046219;28;20870;-78
2022/02/27 10:52:22;;;;;;;3.30;1.80;;;15.90;55.70;;;;;;5043709;28;20565;-78
2022/02/27 10:54:51;;;;;;;3.90;1.90;;;15.40;55.00;;;;;;5040997;28;21155;-78
2022/02/27 10:57:32;;;;;;;3.40;1.60;;;15.50;58.50;;;;;;5045496;28;20630;-76
2022/02/27 11:00:11;;;;;;;3.63;1.73;;;15.70;58.40;;;;;;5046547;28;20614;-79
2022/02/27 11:02:38;;;;;;;3.80;1.90;;;15.60;58.60;;;;;;5043843;28;20587;-78
2022/02/27 11:05:10;;;;;;;5.37;2.50;;;15.60;57.70;;;;;;5042005;28;20604;-78
2022/02/27 11:07:37;;;;;;;3.67;2.13;;;15.30;55.10;;;;;;5041094;28;20635;-76
2022/02/27 11:10:05;;;;;;;4.57;1.87;;;15.20;56.60;;;;;;5042912;28;20704;-76
2022/02/27 11:12:31;;;;;;;3.10;1.33;;;15.10;55.90;;;;;;5043487;28;20579;-78
2022/02/27 11:14:59;;;;;;;3.30;1.60;;;15.20;57.10;;;;;;5044555;28;20571;-77
2022/02/27 11:17:25;;;;;;;1.90;1.30;;;15.30;58.80;;;;;;5040761;28;20584;-78
2022/02/27 11:19:51;;;;;;;2.60;1.23;;;15.40;60.40;;;;;;5044782;28;20614;-78
2022/02/27 11:22:18;;;;;;;3.10;1.43;;;15.60;59.80;;;;;;5053079;28;20588;-78
2022/02/27 11:24:45;;;;;;;2.83;1.60;;;15.70;57.90;;;;;;5027076;28;20200;-77
2022/02/27 11:27:14;;;;;;;3.07;1.83;;;15.60;55.90;;;;;;5044294;28;20670;-77
2022/02/27 11:29:41;;;;;;;2.77;1.60;;;15.40;54.70;;;;;;5043921;28;20603;-77
2022/02/27 11:32:09;;;;;;;3.70;2.53;;;15.50;57.60;;;;;;5039116;28;20611;-77
2022/02/27 11:34:41;;;;;;;4.27;1.60;;;15.80;59.10;;;;;;5011185;28;20564;-77
2022/02/27 11:37:07;;;;;;;2.80;1.33;;;15.90;58.00;;;;;;5044210;28;20580;-78
2022/02/27 11:42:51;;;;;;;3.00;1.50;;;16.00;55.50;;;;;;5032670;28;20582;-77
2022/02/27 11:45:32;;;;;;;4.43;1.63;;;16.00;57.80;;;;;;5036056;28;20594;-77
2022/02/27 11:47:58;;;;;;;3.50;1.60;;;15.80;53.70;;;;;;5024709;28;20640;-77
2022/02/27 11:50:29;;;;;;;3.90;1.93;;;15.80;57.10;;;;;;5042591;28;20989;-77
2022/02/27 11:52:55;;;;;;;5.20;2.87;;;15.80;57.40;;;;;;5043590;28;20591;-78
2022/02/27 11:55:54;;;;;;;3.83;1.93;;;15.80;55.60;;;;;;5051068;28;20751;-77
2022/02/27 11:58:40;;;;;;;4.63;2.10;;;15.40;53.80;;;;;;5020061;28;20588;-77
2022/02/27 12:01:07;;;;;;;4.03;1.90;;;15.30;54.70;;;;;;5039590;28;20605;-77
2022/02/27 12:03:35;;;;;;;2.30;1.30;;;15.30;55.90;;;;;;5041553;28;20683;-77
2022/02/27 12:06:07;;;;;;;3.60;1.70;;;15.30;57.00;;;;;;5042374;28;20603;-76
2022/02/27 12:09:06;;;;;;;2.70;1.67;;;15.20;55.50;;;;;;5021058;28;20644;-76
2022/02/27 12:11:33;;;;;;;3.43;2.10;;;15.20;56.30;;;;;;5039599;28;20629;-78
2022/02/27 12:14:07;;;;;;;2.80;1.83;;;15.20;57.50;;;;;;5039966;28;20922;-79
2022/02/27 12:16:40;;;;;;;2.47;1.60;;;15.00;55.10;;;;;;5033144;28;21152;-76
2022/02/27 12:19:24;;;;;;;3.17;1.77;;;15.10;56.40;;;;;;5041804;28;20985;-76
2022/02/27 12:21:57;;;;;;;3.33;1.90;;;15.10;55.90;;;;;;5038338;28;20567;-79
2022/02/27 12:24:24;;;;;;;3.77;1.90;;;15.10;55.40;;;;;;5040935;28;20572;-76
2022/02/27 12:27:01;;;;;;;2.70;1.53;;;15.00;56.60;;;;;;5042097;28;20610;-76
2022/02/27 12:29:35;;;;;;;4.80;2.30;;;14.80;57.20;;;;;;5007732;28;20577;-76
2022/02/27 12:32:11;;;;;;;4.37;2.07;;;14.80;57.00;;;;;;5021689;28;21180;-78
2022/02/27 12:34:40;;;;;;;3.30;1.63;;;14.70;56.50;;;;;;5037210;28;20573;-78
2022/02/27 12:37:07;;;;;;;3.90;1.90;;;14.60;56.50;;;;;;5044320;28;21010;-78
2022/02/27 12:39:36;;;;;;;3.57;1.97;;;14.30;55.30;;;;;;5038980;28;20591;-78
2022/02/27 12:42:04;;;;;;;3.40;2.50;;;14.30;56.10;;;;;;5035048;28;20590;-78
2022/02/27 12:44:35;;;;;;;5.77;1.80;;;14.10;56.40;;;;;;5042181;28;20576;-78
2022/02/27 12:47:04;;;;;;;2.33;1.57;;;13.70;54.80;;;;;;5040481;28;20964;-78
2022/02/27 12:52:29;;;;;;;7.43;3.47;;;13.50;56.20;;;;;;5045066;28;20591;-77
2022/02/27 12:54:56;;;;;;;4.55;3.20;;;13.30;55.50;;;;;;5044940;28;20674;-78
2022/02/27 12:57:23;;;;;;;6.50;3.55;;;13.00;56.10;;;;;;5040826;28;20549;-78
2022/02/27 12:59:51;;;;;;;5.55;2.78;;;12.90;56.60;;;;;;5039206;28;20219;-77